Cove City, North Carolina
Current Conditions -  °F | °C
As of 8:54 AM on Friday 28 Nov 2014 (Local Time) from KEWN Reporting Station
Clear Clear  
Wind Chill: 31°   Ceiling: Unl
Heat Index: 39°   Visibility: 10mi
Dew Point: 25°   Wind: 15mph
Humidity: 57%   Direction: 360°N
Pressure: 30.35"   Gusts: 22mph
Location:  35.19°N, 77.32°W
Report Text: KEWN 281354Z 36013G19KT 10SM CLR 04/M04 A3035 RMK AO2 SLP276 T00391039
Loading
Personal Weather Stations






























Interactive Weather Map New forecast layout! Learn more

10-Day Weather Forecast

Advertisements
Track Severe Weather on mobile